sim
Sign-in with your pilot id or email,
or register
Callsign
Passwort

Schedule Details

Flight Number: RYR3526 (2)
Departure: Fuerteventura Airport (GCFV) at 18:15
Arrival: London Luton Airport (EGGW) at 22:30
Route: Ryanair Passenger Schedule. Enter filed route here before submitting Pirep.

Weather Information
Getting current METAR information for GCFV 172230Z AUTO 03004KT 7000 NSC 24/20 Q1014
Getting current METAR information for EGGW 172220Z AUTO 21006KT 9999 NCD 15/13 Q1005

Schedule Frequency

Route Map